Time;durP1;ratioP1;P1;durP2;ratioP2;P2;SDS_P1;SDS_P2;PMS_P1;PMS_P2;Temp;Humidity;BMP_temperature;BMP_pressure;BME280_temperature;BME280_humidity;BME280_pressure;Samples;Min_cycle;Max_cycle;Signal;HPM_P1;HPM_P2
2021/03/15 00:00:01;;;;;;;6.03;5.43;;;;;;;;;;5016485;28;20272;-70
2021/03/15 00:02:27;;;;;;;7.43;6.03;;;;;;;;;;5015356;28;20660;-70
2021/03/15 00:04:53;;;;;;;6.67;6.00;;;;;;;;;;4996699;28;20275;-70
2021/03/15 00:07:19;;;;;;;6.87;6.27;;;;;;;;;;5006086;28;20207;-70
2021/03/15 00:09:45;;;;;;;6.63;5.47;;;;;;;;;;5018342;28;20193;-70
2021/03/15 00:12:13;;;;;;;9.03;6.13;;;;;;;;;;5018504;28;20238;-70
2021/03/15 00:14:39;;;;;;;7.40;6.63;;;;;;;;;;5006074;28;20187;-70
2021/03/15 00:17:05;;;;;;;6.27;5.67;;;;;;;;;;5022315;28;20244;-70
2021/03/15 00:19:31;;;;;;;6.63;5.93;;;;;;;;;;5003946;28;20178;-70
2021/03/15 00:21:57;;;;;;;6.33;5.73;;;;;;;;;;5018187;28;20213;-70
2021/03/15 00:24:23;;;;;;;7.43;5.30;;;;;;;;;;4998234;28;20273;-70
2021/03/15 00:26:49;;;;;;;6.33;5.60;;;;;;;;;;5017462;28;20182;-70
2021/03/15 00:29:15;;;;;;;6.53;5.93;;;;;;;;;;5006076;28;20235;-70
2021/03/15 00:31:41;;;;;;;7.03;6.40;;;;;;;;;;5024815;28;20580;-70
2021/03/15 00:34:07;;;;;;;6.77;6.07;;;;;;;;;;5015757;28;20249;-71
2021/03/15 00:36:33;;;;;;;8.67;6.80;;;;;;;;;;5013670;28;20210;-70
2021/03/15 00:38:59;;;;;;;7.23;6.40;;;;;;;;;;5023380;28;20200;-70
2021/03/15 00:41:25;;;;;;;7.67;6.87;;;;;;;;;;5000088;28;20229;-70
2021/03/15 00:43:51;;;;;;;7.60;6.83;;;;;;;;;;5018182;28;20194;-71
2021/03/15 00:46:16;;;;;;;7.90;6.63;;;;;;;;;;5018527;28;20309;-71
2021/03/15 00:48:42;;;;;;;7.43;6.73;;;;;;;;;;5016707;28;20290;-71
2021/03/15 00:51:08;;;;;;;7.30;6.47;;;;;;;;;;4997712;28;20688;-71
2021/03/15 00:53:34;;;;;;;7.23;5.53;;;;;;;;;;5016523;28;20209;-70
2021/03/15 00:56:00;;;;;;;6.27;5.77;;;;;;;;;;5018584;28;20214;-70
2021/03/15 00:58:26;;;;;;;11.90;6.17;;;;;;;;;;5015319;28;20588;-70
2021/03/15 01:00:52;;;;;;;6.80;6.13;;;;;;;;;;5021572;28;20198;-71
2021/03/15 01:03:18;;;;;;;9.93;6.47;;;;;;;;;;5019315;28;20243;-71
2021/03/15 01:05:46;;;;;;;9.87;6.23;;;;;;;;;;5017344;28;20182;-70
2021/03/15 01:08:12;;;;;;;6.30;5.70;;;;;;;;;;5020259;28;20194;-70
2021/03/15 01:10:39;;;;;;;8.73;5.73;;;;;;;;;;5017025;28;20616;-70
2021/03/15 01:13:06;;;;;;;9.00;6.30;;;;;;;;;;5014469;28;20218;-70
2021/03/15 01:15:32;;;;;;;6.37;5.77;;;;;;;;;;4999920;28;20189;-71
2021/03/15 01:17:59;;;;;;;8.87;5.47;;;;;;;;;;5014366;28;20208;-70
2021/03/15 01:20:25;;;;;;;6.33;5.50;;;;;;;;;;5015568;28;20303;-70
2021/03/15 01:22:51;;;;;;;7.23;5.60;;;;;;;;;;5016981;28;20224;-71
2021/03/15 01:25:18;;;;;;;6.30;5.73;;;;;;;;;;5000204;28;20270;-70
2021/03/15 01:27:44;;;;;;;6.40;5.80;;;;;;;;;;5016223;28;20189;-71
2021/03/15 01:30:14;;;;;;;7.60;5.07;;;;;;;;;;5014564;28;20201;-70
2021/03/15 01:32:41;;;;;;;6.57;5.27;;;;;;;;;;5014236;28;20214;-70
2021/03/15 01:35:07;;;;;;;7.93;5.60;;;;;;;;;;5020370;28;20600;-69
2021/03/15 01:37:34;;;;;;;5.87;5.17;;;;;;;;;;5013350;28;20223;-71
2021/03/15 01:40:00;;;;;;;6.97;5.63;;;;;;;;;;5017145;28;20181;-70
2021/03/15 01:42:26;;;;;;;5.80;5.30;;;;;;;;;;5017365;28;20189;-71
2021/03/15 01:44:52;;;;;;;6.83;5.53;;;;;;;;;;5017003;28;20412;-70
2021/03/15 01:47:18;;;;;;;6.27;5.50;;;;;;;;;;5017011;28;20188;-70
2021/03/15 01:49:44;;;;;;;6.20;5.57;;;;;;;;;;5000288;28;20196;-70
2021/03/15 01:52:11;;;;;;;5.67;4.97;;;;;;;;;;5017384;28;20305;-71
2021/03/15 01:54:37;;;;;;;8.10;5.97;;;;;;;;;;5012590;28;20236;-70
2021/03/15 01:57:03;;;;;;;6.70;5.80;;;;;;;;;;5019834;28;20187;-70
2021/03/15 01:59:29;;;;;;;7.60;5.93;;;;;;;;;;4992212;28;20612;-71
2021/03/15 02:01:55;;;;;;;6.37;5.77;;;;;;;;;;5009288;28;20213;-70
2021/03/15 02:04:23;;;;;;;5.53;5.00;;;;;;;;;;5011311;28;20679;-70
2021/03/15 02:06:50;;;;;;;10.27;5.77;;;;;;;;;;5012538;28;20187;-70
2021/03/15 02:09:16;;;;;;;9.47;6.30;;;;;;;;;;5005073;28;20249;-70
2021/03/15 02:12:00;;;;;;;9.07;5.90;;;;;;;;;;5015406;28;20700;-70
2021/03/15 02:14:54;;;;;;;6.20;5.60;;;;;;;;;;5018372;28;20202;-70
2021/03/15 02:17:36;;;;;;;7.00;5.60;;;;;;;;;;5016604;28;20569;-70
2021/03/15 02:20:14;;;;;;;8.67;5.30;;;;;;;;;;5011764;28;20288;-70
2021/03/15 02:22:40;;;;;;;8.73;6.03;;;;;;;;;;5004141;28;20188;-70
2021/03/15 02:25:15;;;;;;;6.17;5.10;;;;;;;;;;4999261;28;20654;-70
2021/03/15 02:27:44;;;;;;;6.03;5.40;;;;;;;;;;5015274;28;20196;-71
2021/03/15 02:30:10;;;;;;;8.63;5.50;;;;;;;;;;5001164;28;20203;-70
2021/03/15 02:32:55;;;;;;;6.70;6.03;;;;;;;;;;5020038;28;20208;-69
2021/03/15 02:35:23;;;;;;;7.63;5.47;;;;;;;;;;5000271;28;20190;-71
2021/03/15 02:37:51;;;;;;;11.07;5.40;;;;;;;;;;5009696;28;20683;-70
2021/03/15 02:40:38;;;;;;;7.00;5.50;;;;;;;;;;5023083;28;20678;-70
2021/03/15 02:43:07;;;;;;;7.10;5.43;;;;;;;;;;5017297;28;20190;-70
2021/03/15 02:45:35;;;;;;;7.03;5.40;;;;;;;;;;5015506;28;20196;-69
2021/03/15 02:48:03;;;;;;;7.50;4.97;;;;;;;;;;5014840;28;20217;-69
2021/03/15 02:50:29;;;;;;;7.03;5.60;;;;;;;;;;5016920;28;20216;-70
2021/03/15 02:52:55;;;;;;;9.63;5.40;;;;;;;;;;5017394;28;20211;-71
2021/03/15 02:55:28;;;;;;;7.80;5.60;;;;;;;;;;5026661;28;20195;-71
2021/03/15 02:57:55;;;;;;;13.47;6.63;;;;;;;;;;5003130;28;20178;-70
2021/03/15 03:00:22;;;;;;;8.13;6.20;;;;;;;;;;5017468;28;20279;-70
2021/03/15 03:02:48;;;;;;;7.57;5.40;;;;;;;;;;5016341;28;20196;-70
2021/03/15 03:05:16;;;;;;;6.30;5.47;;;;;;;;;;5004151;28;20400;-70
2021/03/15 03:07:45;;;;;;;6.57;5.33;;;;;;;;;;5020777;28;20188;-70
2021/03/15 03:10:11;;;;;;;10.93;6.77;;;;;;;;;;5003170;28;20808;-70
2021/03/15 03:12:39;;;;;;;10.40;6.10;;;;;;;;;;5005092;28;20231;-69
2021/03/15 03:15:05;;;;;;;7.20;6.50;;;;;;;;;;5018630;28;20187;-70
2021/03/15 03:17:35;;;;;;;8.77;6.20;;;;;;;;;;5003561;28;20197;-69
2021/03/15 03:20:01;;;;;;;8.17;6.00;;;;;;;;;;5015348;28;20248;-70
2021/03/15 03:22:28;;;;;;;11.03;6.53;;;;;;;;;;5016834;28;20608;-70
2021/03/15 03:24:55;;;;;;;8.97;6.17;;;;;;;;;;5016592;28;20268;-70
2021/03/15 03:27:21;;;;;;;9.47;6.50;;;;;;;;;;5005177;28;20218;-70
2021/03/15 03:29:48;;;;;;;7.07;5.30;;;;;;;;;;5014024;28;20194;-70
2021/03/15 03:32:15;;;;;;;7.63;5.60;;;;;;;;;;4997685;28;20213;-70
2021/03/15 03:34:42;;;;;;;6.50;5.00;;;;;;;;;;5013970;28;20201;-70
2021/03/15 03:37:09;;;;;;;8.07;5.23;;;;;;;;;;5016267;28;20189;-70
2021/03/15 03:39:35;;;;;;;6.13;4.70;;;;;;;;;;5017918;28;20179;-70
2021/03/15 03:42:01;;;;;;;8.20;4.97;;;;;;;;;;5021878;28;20277;-70
2021/03/15 03:44:27;;;;;;;5.87;4.40;;;;;;;;;;5015432;28;20225;-71
2021/03/15 03:46:53;;;;;;;9.43;4.70;;;;;;;;;;5020611;28;20193;-71
2021/03/15 03:49:19;;;;;;;6.77;4.40;;;;;;;;;;5023246;28;20192;-71
2021/03/15 03:51:49;;;;;;;8.73;4.40;;;;;;;;;;5006499;28;20593;-70
2021/03/15 03:54:38;;;;;;;4.70;4.00;;;;;;;;;;5017336;28;20209;-70
2021/03/15 03:57:11;;;;;;;6.50;4.20;;;;;;;;;;5004295;28;20196;-70
2021/03/15 03:59:40;;;;;;;6.03;4.00;;;;;;;;;;5016991;28;20183;-71
2021/03/15 04:02:07;;;;;;;6.40;4.20;;;;;;;;;;4999735;28;20300;-70
2021/03/15 04:04:37;;;;;;;6.40;4.60;;;;;;;;;;4998404;28;20189;-70
2021/03/15 04:07:04;;;;;;;4.83;3.97;;;;;;;;;;5018080;28;20263;-70
2021/03/15 04:09:32;;;;;;;9.67;4.30;;;;;;;;;;5022780;28;20193;-70
2021/03/15 04:11:59;;;;;;;5.30;4.00;;;;;;;;;;4998867;28;20217;-70
2021/03/15 04:14:27;;;;;;;6.37;4.13;;;;;;;;;;5017392;28;20218;-70
2021/03/15 04:16:54;;;;;;;6.83;4.40;;;;;;;;;;4999433;28;20218;-70
2021/03/15 04:19:23;;;;;;;5.17;4.10;;;;;;;;;;5000859;28;20238;-69
2021/03/15 04:21:49;;;;;;;8.40;4.17;;;;;;;;;;5017085;28;20227;-70
2021/03/15 04:24:17;;;;;;;7.37;4.70;;;;;;;;;;5001073;28;20189;-69
2021/03/15 04:26:44;;;;;;;6.53;4.40;;;;;;;;;;5016724;28;20664;-70
2021/03/15 04:29:11;;;;;;;8.03;4.23;;;;;;;;;;5015877;28;20205;-70
2021/03/15 04:31:37;;;;;;;6.90;5.13;;;;;;;;;;5001480;28;20210;-71
2021/03/15 04:34:03;;;;;;;5.60;4.60;;;;;;;;;;4999862;28;20185;-70
2021/03/15 04:36:29;;;;;;;5.33;4.43;;;;;;;;;;5020602;28;20185;-70
2021/03/15 04:38:57;;;;;;;9.97;4.97;;;;;;;;;;5017299;28;20194;-70
2021/03/15 04:41:23;;;;;;;6.23;4.33;;;;;;;;;;5000930;28;20233;-70
2021/03/15 04:43:50;;;;;;;7.80;5.00;;;;;;;;;;5018442;28;20190;-70
2021/03/15 04:46:19;;;;;;;7.70;4.37;;;;;;;;;;5015627;28;20190;-70
2021/03/15 04:48:45;;;;;;;6.70;4.90;;;;;;;;;;5016087;28;20185;-70
2021/03/15 04:51:12;;;;;;;7.50;4.90;;;;;;;;;;5006632;28;20203;-70
2021/03/15 04:53:40;;;;;;;9.03;5.23;;;;;;;;;;4994067;28;20523;-71
2021/03/15 04:56:07;;;;;;;8.37;5.40;;;;;;;;;;4996846;28;20798;-70
2021/03/15 04:58:35;;;;;;;6.87;5.00;;;;;;;;;;4997287;28;20578;-71
2021/03/15 05:01:02;;;;;;;11.10;5.13;;;;;;;;;;5020577;28;20223;-71
2021/03/15 05:03:29;;;;;;;7.87;5.27;;;;;;;;;;5014622;28;20202;-71
2021/03/15 05:05:55;;;;;;;7.13;4.80;;;;;;;;;;5017072;28;20183;-70
2021/03/15 05:08:24;;;;;;;7.73;4.60;;;;;;;;;;5015021;28;20197;-71
2021/03/15 05:10:51;;;;;;;9.70;5.43;;;;;;;;;;5013067;28;20303;-70
2021/03/15 05:13:17;;;;;;;6.43;5.70;;;;;;;;;;5018829;28;20216;-70
2021/03/15 05:15:43;;;;;;;9.27;4.67;;;;;;;;;;5000639;28;20192;-70
2021/03/15 05:18:11;;;;;;;10.67;5.93;;;;;;;;;;5015770;28;20212;-70
2021/03/15 05:20:38;;;;;;;8.13;5.37;;;;;;;;;;5016845;28;20212;-69
2021/03/15 05:23:04;;;;;;;9.37;5.60;;;;;;;;;;5001411;28;20278;-71
2021/03/15 05:25:31;;;;;;;9.23;5.40;;;;;;;;;;5021908;28;20267;-70
2021/03/15 05:27:59;;;;;;;7.60;5.30;;;;;;;;;;5001255;28;20186;-69
2021/03/15 05:30:25;;;;;;;7.63;5.50;;;;;;;;;;5020817;28;20208;-70
2021/03/15 05:32:53;;;;;;;10.20;4.80;;;;;;;;;;5003803;28;20310;-70
2021/03/15 05:35:20;;;;;;;8.50;4.93;;;;;;;;;;5021097;28;20182;-70
2021/03/15 05:37:47;;;;;;;9.93;4.80;;;;;;;;;;5014346;28;20188;-70
2021/03/15 05:40:16;;;;;;;10.17;4.83;;;;;;;;;;5018297;28;20245;-70
2021/03/15 05:42:42;;;;;;;8.40;5.23;;;;;;;;;;5018023;28;20194;-72
2021/03/15 05:45:22;;;;;;;11.73;5.20;;;;;;;;;;5018772;28;20309;-69
2021/03/15 05:47:48;;;;;;;8.63;5.00;;;;;;;;;;5000503;28;20727;-69
2021/03/15 05:50:33;;;;;;;8.73;5.30;;;;;;;;;;5013881;28;20190;-69
2021/03/15 05:53:18;;;;;;;6.70;4.63;;;;;;;;;;4989966;28;20242;-69
2021/03/15 05:55:43;;;;;;;10.60;5.40;;;;;;;;;;5009277;28;20190;-70
2021/03/15 05:58:26;;;;;;;7.33;5.17;;;;;;;;;;5001770;28;20247;-69
2021/03/15 06:01:02;;;;;;;11.57;6.47;;;;;;;;;;5010602;28;20241;-69
2021/03/15 06:03:38;;;;;;;10.33;6.33;;;;;;;;;;5009308;28;20189;-70
2021/03/15 06:06:06;;;;;;;11.93;6.90;;;;;;;;;;5001544;28;20318;-71
2021/03/15 06:08:36;;;;;;;11.13;6.53;;;;;;;;;;4999323;28;20630;-70
2021/03/15 06:11:06;;;;;;;10.33;7.00;;;;;;;;;;5012121;28;20245;-70
2021/03/15 06:13:33;;;;;;;16.13;7.27;;;;;;;;;;5013444;28;20206;-70
2021/03/15 06:16:00;;;;;;;13.90;7.13;;;;;;;;;;5012429;28;20243;-70
2021/03/15 06:18:26;;;;;;;11.93;7.50;;;;;;;;;;5010971;28;20185;-70
2021/03/15 06:20:52;;;;;;;13.33;7.93;;;;;;;;;;5013266;28;20211;-69
2021/03/15 06:23:19;;;;;;;10.53;7.07;;;;;;;;;;5011807;28;20672;-71
2021/03/15 06:25:47;;;;;;;15.93;7.90;;;;;;;;;;4998419;28;20192;-70
2021/03/15 06:28:13;;;;;;;9.57;5.97;;;;;;;;;;4998970;28;20267;-69
2021/03/15 06:30:39;;;;;;;14.33;7.07;;;;;;;;;;5014456;28;20209;-70
2021/03/15 06:33:05;;;;;;;12.83;6.67;;;;;;;;;;5009719;28;20711;-69
2021/03/15 06:35:42;;;;;;;13.03;5.97;;;;;;;;;;4993849;28;20647;-69
2021/03/15 06:38:08;;;;;;;10.60;6.43;;;;;;;;;;5016313;28;20269;-69
2021/03/15 06:40:35;;;;;;;9.17;6.43;;;;;;;;;;5015710;28;20474;-70
2021/03/15 06:43:02;;;;;;;14.27;6.47;;;;;;;;;;5019033;28;20271;-69
2021/03/15 06:45:28;;;;;;;8.47;6.33;;;;;;;;;;5016694;28;20203;-69
2021/03/15 06:47:54;;;;;;;7.37;6.10;;;;;;;;;;5019204;28;20192;-69
2021/03/15 06:50:21;;;;;;;8.80;6.23;;;;;;;;;;5018648;28;20206;-68
2021/03/15 06:52:50;;;;;;;9.33;6.73;;;;;;;;;;5008656;28;20640;-68
2021/03/15 06:55:16;;;;;;;10.30;6.40;;;;;;;;;;5013490;28;20215;-68
2021/03/15 06:57:42;;;;;;;10.47;6.87;;;;;;;;;;4996535;28;20857;-69
2021/03/15 07:00:08;;;;;;;8.63;6.00;;;;;;;;;;5006855;28;20592;-69
2021/03/15 07:02:34;;;;;;;6.37;5.27;;;;;;;;;;5012163;28;20190;-69
2021/03/15 07:05:09;;;;;;;6.10;4.80;;;;;;;;;;5007185;28;20198;-68
2021/03/15 07:07:37;;;;;;;6.37;5.30;;;;;;;;;;5011672;28;20186;-69
2021/03/15 07:10:13;;;;;;;4.53;4.13;;;;;;;;;;5009844;28;20308;-69
2021/03/15 07:12:39;;;;;;;5.37;4.50;;;;;;;;;;5009047;28;20664;-69
2021/03/15 07:15:06;;;;;;;6.73;4.20;;;;;;;;;;5010213;28;20186;-68
2021/03/15 07:17:32;;;;;;;6.50;4.13;;;;;;;;;;4996828;28;20272;-69
2021/03/15 07:19:59;;;;;;;5.00;4.50;;;;;;;;;;5016829;28;20189;-69
2021/03/15 07:22:26;;;;;;;4.93;4.43;;;;;;;;;;5014745;28;20925;-69
2021/03/15 07:25:06;;;;;;;5.10;4.43;;;;;;;;;;4998506;28;20643;-68
2021/03/15 07:27:33;;;;;;;4.80;4.30;;;;;;;;;;5001244;28;20309;-69
2021/03/15 07:30:19;;;;;;;4.87;3.80;;;;;;;;;;5011066;28;20208;-69
2021/03/15 07:32:45;;;;;;;5.30;4.80;;;;;;;;;;5000135;28;20231;-69
2021/03/15 07:35:21;;;;;;;6.43;4.10;;;;;;;;;;5012062;28;20189;-69
2021/03/15 07:37:47;;;;;;;4.23;3.87;;;;;;;;;;5011469;28;20192;-69
2021/03/15 07:40:14;;;;;;;4.87;4.43;;;;;;;;;;5008342;28;20700;-69
2021/03/15 07:42:59;;;;;;;4.27;3.93;;;;;;;;;;5012555;28;20215;-69
2021/03/15 07:45:32;;;;;;;4.30;3.90;;;;;;;;;;5005133;28;20258;-69
2021/03/15 07:48:07;;;;;;;6.70;4.00;;;;;;;;;;5011148;28;20387;-69
2021/03/15 07:50:33;;;;;;;6.60;4.83;;;;;;;;;;5010456;28;20206;-69
2021/03/15 07:52:59;;;;;;;5.87;4.57;;;;;;;;;;5008550;28;20212;-69
2021/03/15 07:55:32;;;;;;;4.37;3.97;;;;;;;;;;4998708;28;20184;-69
2021/03/15 07:57:58;;;;;;;5.63;4.00;;;;;;;;;;5011618;28;20189;-69
2021/03/15 08:00:25;;;;;;;4.07;3.60;;;;;;;;;;5011392;28;20220;-69
2021/03/15 08:02:51;;;;;;;4.13;3.73;;;;;;;;;;5004735;28;20199;-69
2021/03/15 08:05:17;;;;;;;5.00;4.60;;;;;;;;;;5012578;28;20200;-69
2021/03/15 08:07:43;;;;;;;5.57;4.53;;;;;;;;;;5019565;28;20565;-69
2021/03/15 08:10:09;;;;;;;4.67;4.13;;;;;;;;;;5011350;28;20212;-69
2021/03/15 08:12:36;;;;;;;5.43;4.27;;;;;;;;;;5009332;28;20291;-69
2021/03/15 08:15:05;;;;;;;3.63;3.33;;;;;;;;;;5012653;28;20292;-69
2021/03/15 08:17:33;;;;;;;4.73;4.37;;;;;;;;;;5008948;28;20255;-68
2021/03/15 08:20:02;;;;;;;5.20;4.00;;;;;;;;;;5015229;28;20197;-69
2021/03/15 08:22:29;;;;;;;5.43;4.87;;;;;;;;;;5017028;28;20220;-69
2021/03/15 08:24:58;;;;;;;5.87;4.90;;;;;;;;;;5018586;28;20193;-69
2021/03/15 08:27:26;;;;;;;5.23;4.83;;;;;;;;;;5009747;28;20194;-69
2021/03/15 08:29:53;;;;;;;6.43;5.73;;;;;;;;;;5014981;28;20718;-69
2021/03/15 08:32:20;;;;;;;4.87;4.47;;;;;;;;;;5012295;28;20215;-69
2021/03/15 08:34:46;;;;;;;4.70;4.30;;;;;;;;;;5012463;28;20188;-69
2021/03/15 08:37:12;;;;;;;6.57;4.03;;;;;;;;;;5016389;28;20192;-69
2021/03/15 08:39:40;;;;;;;4.10;3.80;;;;;;;;;;5012467;28;20188;-69
2021/03/15 08:42:06;;;;;;;5.07;3.97;;;;;;;;;;5017022;28;20241;-69
2021/03/15 08:44:42;;;;;;;4.77;4.37;;;;;;;;;;5008171;28;20611;-69
2021/03/15 08:47:09;;;;;;;4.53;2.87;;;;;;;;;;5012385;28;20617;-69
2021/03/15 08:49:37;;;;;;;3.87;3.57;;;;;;;;;;5011546;28;20187;-70
2021/03/15 08:52:04;;;;;;;2.87;2.57;;;;;;;;;;4999527;28;20226;-70
2021/03/15 08:54:45;;;;;;;2.97;2.77;;;;;;;;;;5009057;28;20566;-69
2021/03/15 08:57:34;;;;;;;2.30;2.10;;;;;;;;;;4990828;28;20241;-70
2021/03/15 09:00:00;;;;;;;2.37;2.27;;;;;;;;;;5019447;28;20180;-69
2021/03/15 09:02:37;;;;;;;2.43;2.23;;;;;;;;;;5011470;28;20217;-70
2021/03/15 09:05:21;;;;;;;2.47;2.23;;;;;;;;;;5012902;28;20191;-70
2021/03/15 09:07:47;;;;;;;2.37;2.17;;;;;;;;;;5012104;28;20183;-70
2021/03/15 09:10:27;;;;;;;1.73;1.63;;;;;;;;;;5008382;28;20203;-70
2021/03/15 09:13:11;;;;;;;1.90;1.80;;;;;;;;;;4995535;28;20245;-69
2021/03/15 09:15:38;;;;;;;2.40;2.20;;;;;;;;;;5011618;28;20219;-69
2021/03/15 09:18:22;;;;;;;3.97;3.63;;;;;;;;;;5007465;28;20193;-70
2021/03/15 09:20:48;;;;;;;2.20;1.90;;;;;;;;;;4994920;28;20197;-71
2021/03/15 09:23:33;;;;;;;3.60;2.10;;;;;;;;;;5014856;28;20200;-71
2021/03/15 09:26:17;;;;;;;1.97;1.87;;;;;;;;;;5010723;28;20272;-70
2021/03/15 09:28:43;;;;;;;2.90;2.00;;;;;;;;;;5013038;28;20189;-71
2021/03/15 09:31:09;;;;;;;2.50;2.30;;;;;;;;;;5017093;28;20221;-71
2021/03/15 09:33:37;;;;;;;1.73;1.63;;;;;;;;;;4999637;28;20329;-70
2021/03/15 09:36:03;;;;;;;1.57;1.47;;;;;;;;;;4989514;28;20217;-71
2021/03/15 09:38:30;;;;;;;1.47;1.40;;;;;;;;;;5011993;28;20294;-71
2021/03/15 09:40:57;;;;;;;2.00;1.90;;;;;;;;;;4986882;28;20201;-71
2021/03/15 09:43:24;;;;;;;1.90;1.80;;;;;;;;;;5008385;28;20465;-70
2021/03/15 09:45:56;;;;;;;1.63;1.53;;;;;;;;;;4986694;28;20186;-71
2021/03/15 09:48:23;;;;;;;6.43;4.07;;;;;;;;;;4992232;28;20249;-71
2021/03/15 09:50:53;;;;;;;2.37;2.10;;;;;;;;;;5008668;28;20681;-71
2021/03/15 09:53:19;;;;;;;2.70;2.50;;;;;;;;;;5012358;28;20217;-71
2021/03/15 09:55:46;;;;;;;2.80;2.13;;;;;;;;;;5014312;28;20260;-71
2021/03/15 09:58:20;;;;;;;2.60;2.40;;;;;;;;;;5014099;28;20195;-71
2021/03/15 10:00:46;;;;;;;3.33;1.90;;;;;;;;;;5009949;28;20210;-71
2021/03/15 10:03:19;;;;;;;2.63;2.43;;;;;;;;;;5019158;28;20872;-71
2021/03/15 10:05:52;;;;;;;3.37;2.50;;;;;;;;;;4994692;28;20769;-71
2021/03/15 10:08:17;;;;;;;2.60;2.40;;;;;;;;;;5009318;28;20199;-71
2021/03/15 10:10:43;;;;;;;3.23;3.00;;;;;;;;;;5015685;28;20228;-71
2021/03/15 10:13:10;;;;;;;2.50;2.30;;;;;;;;;;5010415;28;20342;-70
2021/03/15 10:15:36;;;;;;;5.90;3.40;;;;;;;;;;4994773;28;20198;-71
2021/03/15 10:18:02;;;;;;;2.77;2.53;;;;;;;;;;5015151;28;20196;-71
2021/03/15 10:20:30;;;;;;;3.03;2.80;;;;;;;;;;5014638;28;20208;-71
2021/03/15 10:22:56;;;;;;;3.80;2.80;;;;;;;;;;5007769;28;20213;-71
2021/03/15 10:25:23;;;;;;;2.90;2.70;;;;;;;;;;5009011;28;20189;-71
2021/03/15 10:27:59;;;;;;;2.53;2.33;;;;;;;;;;5007188;28;20183;-71
2021/03/15 10:30:32;;;;;;;2.30;2.20;;;;;;;;;;5001890;28;20277;-71
2021/03/15 10:32:58;;;;;;;3.13;2.80;;;;;;;;;;5005815;28;20641;-71
2021/03/15 10:35:25;;;;;;;2.87;2.67;;;;;;;;;;5010429;28;20192;-71
2021/03/15 10:37:52;;;;;;;2.50;2.40;;;;;;;;;;5010839;28;20184;-71
2021/03/15 10:40:20;;;;;;;2.90;2.70;;;;;;;;;;5008150;28;20212;-71
2021/03/15 10:42:47;;;;;;;2.73;2.53;;;;;;;;;;4993038;28;20625;-71
2021/03/15 10:45:13;;;;;;;2.67;2.47;;;;;;;;;;5009439;28;20186;-70
2021/03/15 10:47:40;;;;;;;3.17;2.87;;;;;;;;;;5006455;28;20192;-71
2021/03/15 10:50:25;;;;;;;3.63;2.80;;;;;;;;;;4991835;28;20213;-73
2021/03/15 10:52:51;;;;;;;2.97;2.70;;;;;;;;;;4986593;28;20244;-71
2021/03/15 10:55:18;;;;;;;2.97;2.77;;;;;;;;;;5017637;28;20191;-70
2021/03/15 10:58:03;;;;;;;3.10;2.90;;;;;;;;;;4996352;28;20184;-71
2021/03/15 11:00:30;;;;;;;3.00;2.80;;;;;;;;;;5007072;28;20228;-71
2021/03/15 11:02:56;;;;;;;2.97;2.43;;;;;;;;;;5013070;28;21254;-71
2021/03/15 11:05:22;;;;;;;2.70;2.37;;;;;;;;;;5012644;28;20197;-71
2021/03/15 11:07:50;;;;;;;3.97;3.50;;;;;;;;;;5009113;28;20595;-71
2021/03/15 11:10:22;;;;;;;3.40;3.10;;;;;;;;;;5010742;28;20329;-71
2021/03/15 11:12:51;;;;;;;2.67;2.47;;;;;;;;;;5009227;28;20294;-71
2021/03/15 11:15:22;;;;;;;3.40;3.10;;;;;;;;;;5010243;28;20188;-71
2021/03/15 11:17:58;;;;;;;2.90;2.70;;;;;;;;;;5003210;28;20173;-71
2021/03/15 11:20:36;;;;;;;2.70;2.50;;;;;;;;;;5009924;28;20727;-71
2021/03/15 11:23:03;;;;;;;2.90;2.70;;;;;;;;;;5009120;28;20191;-71
2021/03/15 11:25:29;;;;;;;3.60;3.30;;;;;;;;;;4992866;28;20269;-71
2021/03/15 11:28:01;;;;;;;2.87;2.23;;;;;;;;;;5013048;28;20196;-71
2021/03/15 11:30:28;;;;;;;2.83;2.63;;;;;;;;;;5009477;28;20266;-71
2021/03/15 11:33:10;;;;;;;2.60;2.40;;;;;;;;;;5010484;28;20623;-71
2021/03/15 11:35:38;;;;;;;3.03;2.83;;;;;;;;;;5005538;28;20827;-70
2021/03/15 11:38:04;;;;;;;3.07;2.87;;;;;;;;;;4984791;28;20559;-71
2021/03/15 11:40:33;;;;;;;5.23;4.73;;;;;;;;;;5008843;28;20772;-71
2021/03/15 11:42:59;;;;;;;5.63;4.87;;;;;;;;;;5015791;28;20196;-71
2021/03/15 11:45:26;;;;;;;7.17;6.43;;;;;;;;;;5001519;28;20192;-70
2021/03/15 11:47:52;;;;;;;5.43;4.93;;;;;;;;;;5009303;28;20191;-71
2021/03/15 11:50:19;;;;;;;4.77;3.93;;;;;;;;;;5007341;28;20210;-71
2021/03/15 11:52:45;;;;;;;4.50;3.90;;;;;;;;;;5009428;28;20629;-71
2021/03/15 11:55:11;;;;;;;3.07;2.87;;;;;;;;;;4995822;28;20188;-71
2021/03/15 11:57:38;;;;;;;2.70;2.50;;;;;;;;;;5004669;28;20182;-71
2021/03/15 12:00:05;;;;;;;2.17;2.00;;;;;;;;;;5006807;28;20266;-71
2021/03/15 12:02:31;;;;;;;3.00;2.40;;;;;;;;;;4992284;28;20438;-71
2021/03/15 12:04:57;;;;;;;3.60;2.80;;;;;;;;;;5012072;28;20686;-71
2021/03/15 12:07:23;;;;;;;2.37;2.20;;;;;;;;;;5012207;28;20209;-71
2021/03/15 12:09:49;;;;;;;2.70;2.50;;;;;;;;;;5009709;28;20771;-71
2021/03/15 12:12:15;;;;;;;3.50;2.80;;;;;;;;;;5010820;28;20245;-71
2021/03/15 12:14:42;;;;;;;2.30;2.20;;;;;;;;;;4995874;28;20670;-71
2021/03/15 12:17:08;;;;;;;3.43;2.53;;;;;;;;;;4996119;28;20193;-71
2021/03/15 12:19:34;;;;;;;2.73;2.53;;;;;;;;;;5018371;28;20566;-71
2021/03/15 12:22:00;;;;;;;2.60;2.43;;;;;;;;;;4993848;28;20228;-71
2021/03/15 12:24:26;;;;;;;2.80;2.60;;;;;;;;;;4990399;28;20189;-71
2021/03/15 12:26:52;;;;;;;2.70;2.50;;;;;;;;;;5011523;28;20189;-71
2021/03/15 12:29:18;;;;;;;2.70;2.50;;;;;;;;;;4993682;28;20185;-71
2021/03/15 12:31:44;;;;;;;3.23;3.03;;;;;;;;;;5017894;28;20299;-72
2021/03/15 12:34:10;;;;;;;2.80;2.60;;;;;;;;;;4994694;28;20193;-71
2021/03/15 12:36:36;;;;;;;2.70;2.17;;;;;;;;;;5016791;28;20451;-71
2021/03/15 12:39:02;;;;;;;3.50;2.40;;;;;;;;;;5012129;28;20263;-71
2021/03/15 12:41:28;;;;;;;4.33;2.60;;;;;;;;;;4991741;28;20232;-71
2021/03/15 12:43:54;;;;;;;3.03;2.72;;;;;;;;;;5015164;28;20897;-71
2021/03/15 12:46:20;;;;;;;2.40;2.20;;;;;;;;;;5003529;28;20206;-71
2021/03/15 12:48:47;;;;;;;2.70;2.50;;;;;;;;;;5009740;28;20254;-71
2021/03/15 12:51:13;;;;;;;2.75;2.55;;;;;;;;;;4987864;28;20201;-70
2021/03/15 12:53:39;;;;;;;2.77;2.33;;;;;;;;;;5011424;28;20224;-70
2021/03/15 12:56:05;;;;;;;2.87;2.10;;;;;;;;;;5012350;28;20185;-70
2021/03/15 12:58:31;;;;;;;2.30;2.10;;;;;;;;;;5013267;28;20264;-70
2021/03/15 13:00:57;;;;;;;2.33;2.20;;;;;;;;;;5013186;28;20201;-70
2021/03/15 13:03:23;;;;;;;1.90;1.80;;;;;;;;;;5014136;28;20335;-70
2021/03/15 13:05:49;;;;;;;2.17;1.98;;;;;;;;;;4993161;28;20659;-71
2021/03/15 13:08:15;;;;;;;3.40;2.63;;;;;;;;;;5015126;28;20185;-70
2021/03/15 13:10:41;;;;;;;1.90;1.80;;;16.30;64.30;;;;;;5009071;28;20216;-70
2021/03/15 13:13:07;;;;;;;2.88;1.80;;;;;;;;;;5007801;28;20674;-70
2021/03/15 13:15:33;;;;;;;1.63;1.50;;;;;;;;;;5004304;28;20679;-70
2021/03/15 13:18:00;;;;;;;1.55;1.45;;;;;;;;;;4989610;28;20184;-71
2021/03/15 13:20:26;;;;;;;2.30;1.80;;;;;;;;;;5011365;28;20197;-71
2021/03/15 13:22:52;;;;;;;2.10;1.90;;;;;;;;;;5011831;28;20212;-71
2021/03/15 13:25:18;;;;;;;2.13;1.92;;;;;;;;;;5019027;28;20186;-71
2021/03/15 13:27:44;;;;;;;2.08;1.98;;;;;;;;;;5011863;28;20184;-71
2021/03/15 13:30:11;;;;;;;2.20;2.10;;;;;;;;;;5013652;28;20280;-71
2021/03/15 13:32:37;;;;;;;2.20;2.03;;;;;;;;;;5019414;28;20564;-71
2021/03/15 13:35:04;;;;;;;2.17;1.98;;;;;;;;;;5012602;28;20182;-71
2021/03/15 13:37:29;;;;;;;3.15;2.60;;;;;;;;;;4992383;28;20403;-70
2021/03/15 13:39:56;;;;;;;3.10;2.40;;;;;;;;;;5013765;28;20185;-71
2021/03/15 13:42:22;;;;;;;2.65;2.45;;;;;;;;;;5012681;28;20209;-71
2021/03/15 13:44:49;;;;;;;3.33;2.10;;;;;;;;;;5010743;28;20550;-71
2021/03/15 13:47:15;;;;;;;3.15;1.83;;;;;;;;;;5011765;28;20187;-72
2021/03/15 13:49:41;;;;;;;2.33;1.80;;;17.10;96.50;;;;;;5009342;28;20189;-72
2021/03/15 13:52:07;;;;;;;2.33;1.70;;;18.50;81.30;;;;;;5008931;28;20593;-72
2021/03/15 13:54:33;;;;;;;3.17;1.50;;;19.60;70.80;;;;;;5005924;28;20181;-72
2021/03/15 13:56:58;;;;;;;1.90;1.50;;;20.80;72.50;;;;;;4991103;28;20263;-73
2021/03/15 13:59:24;;;;;;;1.58;1.38;;;21.10;61.90;;;;;;5009440;28;20670;-72
2021/03/15 14:01:50;;;;;;;2.53;1.52;;;;;;;;;;4995312;28;20211;-72
2021/03/15 14:04:16;;;;;;;3.22;1.58;;;;;;;;;;5013031;28;20207;-71
2021/03/15 14:06:42;;;;;;;3.88;2.38;;;;;;;;;;5014287;28;20185;-71
2021/03/15 14:09:08;;;;;;;3.80;2.10;;;;;;;;;;5010378;28;20525;-71
2021/03/15 14:11:34;;;;;;;4.05;1.77;;;;;;;;;;4992999;28;20200;-72
2021/03/15 14:14:00;;;;;;;4.40;2.38;;;;;;;;;;4998321;28;20216;-71
2021/03/15 14:16:26;;;;;;;3.75;2.00;;;;;;;;;;5020032;28;20177;-71
2021/03/15 14:18:52;;;;;;;3.78;2.33;;;;;;;;;;5012310;28;20174;-71
2021/03/15 14:21:18;;;;;;;3.08;2.78;;;;;;;;;;4996594;28;20201;-71
2021/03/15 14:23:45;;;;;;;3.22;2.60;;;;;;;;;;5005725;28;20203;-70
2021/03/15 14:26:14;;;;;;;2.92;2.70;;;;;;;;;;5007274;28;20212;-70
2021/03/15 14:28:40;;;;;;;4.80;3.20;;;;;;;;;;5008905;28;20738;-70
2021/03/15 14:31:06;;;;;;;3.20;2.85;;;;;;;;;;5010311;28;20220;-70
2021/03/15 14:33:32;;;;;;;4.72;3.00;;;;;;;;;;5009487;28;20215;-70
2021/03/15 14:35:58;;;;;;;6.55;3.10;;;;;;;;;;4990435;28;20323;-71
2021/03/15 14:38:24;;;;;;;4.90;2.72;;;;;;;;;;5009440;28;20260;-71
2021/03/15 14:40:50;;;;;;;4.18;2.75;;;;;;;;;;5010512;28;20288;-70
2021/03/15 14:43:16;;;;;;;4.30;2.40;;;;;;;;;;4987768;28;20189;-71
2021/03/15 14:45:49;;;;;;;2.63;2.20;;;;;;;;;;5018482;28;20184;-71